createdAt,value
2023-04-14T00:02:08.653Z,85.45
2023-04-14T00:04:35.917Z,84.35
2023-04-14T00:07:02.966Z,85.25
2023-04-14T00:09:30.084Z,85.50
2023-04-14T00:11:57.640Z,85.83
2023-04-14T00:14:24.392Z,85.82
2023-04-14T00:16:51.310Z,86.78
2023-04-14T00:19:18.239Z,86.35
2023-04-14T00:21:44.942Z,87.31
2023-04-14T00:24:11.631Z,88.33
2023-04-14T00:26:38.582Z,87.85
2023-04-14T00:29:05.419Z,86.77
2023-04-14T00:31:32.440Z,85.58
2023-04-14T00:34:00.773Z,85.09
2023-04-14T00:36:27.484Z,85.64
2023-04-14T00:38:54.191Z,85.55
2023-04-14T00:41:20.890Z,85.54
2023-04-14T00:43:47.556Z,86.06
2023-04-14T00:46:17.283Z,87.03
2023-04-14T00:48:44.518Z,87.73
2023-04-14T00:51:11.816Z,88.18
2023-04-14T00:53:40.919Z,86.62
2023-04-14T00:56:08.203Z,88.29
2023-04-14T00:58:35.612Z,88.92
2023-04-14T01:01:03.014Z,88.06
2023-04-14T01:03:29.944Z,86.94
2023-04-14T01:05:58.145Z,86.49
2023-04-14T01:08:25.670Z,86.94
2023-04-14T01:11:06.637Z,87.37
2023-04-14T01:13:53.702Z,89.47
2023-04-14T01:16:31.831Z,88.40
2023-04-14T01:19:20.620Z,87.75
2023-04-14T01:21:55.010Z,87.98
2023-04-14T01:24:52.272Z,86.78
2023-04-14T01:27:38.529Z,86.77
2023-04-14T01:30:20.700Z,87.24
2023-04-14T01:32:49.987Z,86.78
2023-04-14T01:35:26.066Z,86.01
2023-04-14T01:37:56.117Z,86.22
2023-04-14T01:40:27.726Z,88.39
2023-04-14T01:43:04.363Z,87.91
2023-04-14T01:45:39.588Z,87.50
2023-04-14T01:48:07.966Z,88.09
2023-04-14T01:50:36.534Z,87.26
2023-04-14T01:53:06.776Z,86.22
2023-04-14T01:55:37.658Z,85.77
2023-04-14T01:58:06.693Z,86.63
2023-04-14T02:00:36.025Z,87.71
2023-04-14T02:03:04.868Z,89.15
2023-04-14T02:05:34.785Z,88.90
2023-04-14T02:08:06.134Z,88.06
2023-04-14T02:10:33.997Z,88.04
2023-04-14T02:13:04.644Z,87.33
2023-04-14T02:15:32.257Z,87.98
2023-04-14T02:18:00.668Z,89.75
2023-04-14T02:20:28.694Z,89.05
2023-04-14T02:22:55.738Z,88.21
2023-04-14T02:25:25.639Z,87.51
2023-04-14T02:28:00.237Z,88.59
2023-04-14T02:30:33.914Z,90.17
2023-04-14T02:33:12.205Z,90.25
2023-04-14T02:35:48.431Z,91.11
2023-04-14T02:38:33.338Z,92.76
2023-04-14T02:41:02.555Z,92.46
2023-04-14T02:43:36.876Z,93.83
2023-04-14T02:46:06.303Z,94.21
2023-04-14T02:48:35.845Z,95.08
2023-04-14T02:51:05.067Z,94.73
2023-04-14T02:53:34.406Z,94.90
2023-04-14T02:56:11.999Z,95.28
2023-04-14T02:58:42.724Z,95.60
2023-04-14T03:01:10.995Z,94.62
2023-04-14T03:03:38.408Z,94.59
2023-04-14T03:06:09.239Z,95.82
2023-04-14T03:08:37.460Z,95.74
2023-04-14T03:11:05.661Z,95.21
2023-04-14T03:13:34.479Z,93.96
2023-04-14T03:16:03.441Z,93.86
2023-04-14T03:18:32.237Z,93.52
2023-04-14T03:21:02.267Z,92.88
2023-04-14T03:23:31.854Z,92.11
2023-04-14T03:26:03.415Z,92.44
2023-04-14T03:28:34.100Z,93.17
2023-04-14T03:31:06.162Z,93.08
2023-04-14T03:33:43.717Z,93.59
2023-04-14T03:36:15.029Z,94.71
2023-04-14T03:38:42.476Z,94.26
2023-04-14T03:41:10.437Z,93.79
2023-04-14T03:43:39.781Z,94.00
2023-04-14T03:46:11.135Z,91.64
2023-04-14T03:48:42.546Z,91.31
2023-04-14T03:51:13.900Z,90.84
2023-04-14T03:53:43.153Z,91.44
2023-04-14T03:56:13.434Z,90.84
2023-04-14T03:58:43.927Z,90.96
2023-04-14T04:01:12.311Z,91.25
2023-04-14T04:03:40.858Z,91.47
2023-04-14T04:06:08.157Z,90.43
2023-04-14T04:08:36.367Z,91.50
2023-04-14T04:11:07.307Z,90.23
2023-04-14T04:13:36.729Z,90.53
2023-04-14T04:16:07.037Z,89.84
2023-04-14T04:18:38.117Z,89.93
2023-04-14T04:21:07.158Z,90.64
2023-04-14T04:23:37.228Z,89.99
2023-04-14T04:26:04.360Z,89.62
2023-04-14T04:28:36.935Z,89.74
2023-04-14T04:31:06.239Z,89.47
2023-04-14T04:33:34.415Z,89.67
2023-04-14T04:36:01.995Z,90.26
2023-04-14T04:38:35.603Z,88.75
2023-04-14T04:41:02.448Z,88.95
2023-04-14T04:43:31.596Z,90.72
2023-04-14T04:45:58.358Z,91.31
2023-04-14T04:48:26.200Z,89.93
2023-04-14T04:50:52.852Z,89.18
2023-04-14T04:53:19.596Z,86.87
2023-04-14T04:55:46.266Z,88.17
2023-04-14T04:58:12.962Z,88.15
2023-04-14T05:00:39.886Z,88.10
2023-04-14T05:03:06.772Z,88.40
2023-04-14T05:05:37.142Z,88.06
2023-04-14T05:08:03.973Z,88.64
2023-04-14T05:10:30.749Z,90.35
2023-04-14T05:12:57.458Z,89.66
2023-04-14T05:15:24.055Z,90.94
2023-04-14T05:17:50.956Z,89.83
2023-04-14T05:20:17.666Z,90.80
2023-04-14T05:22:44.251Z,91.43
2023-04-14T05:25:10.830Z,90.75
2023-04-14T05:27:37.457Z,89.96
2023-04-14T05:30:07.248Z,88.05
2023-04-14T05:32:33.920Z,88.11
2023-04-14T05:35:00.589Z,87.24
2023-04-14T05:37:29.840Z,87.39
2023-04-14T05:39:56.577Z,86.88
2023-04-14T05:42:23.507Z,87.03
2023-04-14T05:44:50.149Z,86.52
2023-04-14T05:47:16.794Z,87.18
2023-04-14T05:49:43.443Z,86.74
2023-04-14T05:52:10.406Z,85.57
2023-04-14T05:54:37.052Z,86.33
2023-04-14T05:57:03.864Z,85.36
2023-04-14T05:59:30.592Z,84.16
2023-04-14T06:01:57.279Z,83.53
2023-04-14T06:04:26.612Z,84.00
2023-04-14T06:06:53.297Z,82.96
2023-04-14T06:09:19.888Z,83.88
2023-04-14T06:11:46.647Z,83.39
2023-04-14T06:14:13.337Z,83.26
2023-04-14T06:16:39.946Z,83.66
2023-04-14T06:19:06.550Z,83.47
2023-04-14T06:21:33.281Z,81.81
2023-04-14T06:23:59.911Z,80.08
2023-04-14T06:26:26.590Z,78.27
2023-04-14T06:28:53.653Z,77.00
2023-04-14T06:31:20.700Z,76.23
2023-04-14T06:33:47.397Z,76.02
2023-04-14T06:36:16.844Z,75.15
2023-04-14T06:38:43.744Z,76.33
2023-04-14T06:41:10.588Z,75.81
2023-04-14T06:43:37.224Z,75.15
2023-04-14T06:46:03.994Z,75.22
2023-04-14T06:48:30.775Z,75.23
2023-04-14T06:50:57.505Z,74.93
2023-04-14T06:53:24.234Z,75.04
2023-04-14T06:55:59.618Z,72.91
2023-04-14T06:58:27.682Z,72.97
2023-04-14T07:00:56.197Z,72.19
2023-04-14T07:03:41.591Z,73.61
2023-04-14T07:06:11.612Z,73.13
2023-04-14T07:08:40.513Z,72.72
2023-04-14T07:11:09.530Z,71.95
2023-04-14T07:13:37.023Z,69.49
2023-04-14T07:16:04.328Z,70.11
2023-04-14T07:18:31.764Z,70.60
2023-04-14T07:21:00.408Z,71.29
2023-04-14T07:23:27.857Z,70.76
2023-04-14T07:25:58.808Z,71.06
2023-04-14T07:28:26.913Z,70.34
2023-04-14T07:30:54.148Z,70.49
2023-04-14T07:33:22.497Z,70.76
2023-04-14T07:36:01.230Z,70.68
2023-04-14T07:38:28.743Z,70.42
2023-04-14T07:40:55.546Z,70.43
2023-04-14T07:43:22.676Z,69.41
2023-04-14T07:45:49.711Z,68.94
2023-04-14T07:48:19.444Z,68.02
2023-04-14T07:50:49.692Z,68.68
2023-04-14T07:53:16.379Z,68.33
2023-04-14T07:55:43.039Z,67.34
2023-04-14T07:58:09.821Z,68.01
2023-04-14T08:00:36.645Z,66.80
2023-04-14T08:03:03.483Z,66.42
2023-04-14T08:05:30.352Z,64.62
2023-04-14T08:07:57.091Z,65.23
2023-04-14T08:10:23.908Z,65.45
2023-04-14T08:12:50.615Z,65.47
2023-04-14T08:15:17.267Z,64.38
2023-04-14T08:17:44.359Z,63.99
2023-04-14T08:20:11.364Z,63.31
2023-04-14T08:22:38.088Z,64.26
2023-04-14T08:25:05.030Z,63.81
2023-04-14T08:27:31.878Z,62.42
2023-04-14T08:29:58.501Z,62.68
2023-04-14T08:32:25.286Z,61.37
2023-04-14T08:35:39.047Z,60.39
2023-04-14T08:37:41.910Z,59.60
2023-04-14T08:40:12.466Z,60.31
2023-04-14T08:42:39.916Z,58.02
2023-04-14T08:45:07.570Z,58.29
2023-04-14T08:47:36.247Z,58.53
2023-04-14T08:50:10.319Z,57.23
2023-04-14T08:52:41.590Z,56.53
2023-04-14T08:55:11.153Z,57.64
2023-04-14T08:57:41.216Z,57.17
2023-04-14T09:00:09.678Z,56.29
2023-04-14T09:02:40.289Z,55.43
2023-04-14T09:05:08.056Z,54.88
2023-04-14T09:07:35.958Z,55.78
2023-04-14T09:10:03.336Z,56.62
2023-04-14T09:12:32.244Z,56.65
2023-04-14T09:14:59.311Z,56.02
2023-04-14T09:17:26.886Z,56.04
2023-04-14T09:20:35.614Z,58.21
2023-04-14T09:22:40.662Z,57.31
2023-04-14T09:25:08.842Z,56.01
2023-04-14T09:27:35.948Z,55.16
2023-04-14T09:30:03.506Z,54.72
2023-04-14T09:32:31.060Z,55.03
2023-04-14T09:34:58.522Z,54.98
2023-04-14T09:37:26.110Z,52.68
2023-04-14T09:39:55.419Z,53.93
2023-04-14T09:42:39.600Z,54.96
2023-04-14T09:45:06.947Z,55.45
2023-04-14T09:47:33.835Z,52.81
2023-04-14T09:50:04.065Z,53.93
2023-04-14T09:52:42.086Z,51.97
2023-04-14T09:55:13.327Z,52.36
2023-04-14T09:57:51.804Z,53.09
2023-04-14T10:00:21.645Z,53.15
2023-04-14T10:03:01.392Z,52.99
2023-04-14T10:05:32.017Z,54.44
2023-04-14T10:08:05.387Z,53.14
2023-04-14T10:10:32.702Z,52.32
2023-04-14T10:13:00.449Z,51.37
2023-04-14T10:15:27.662Z,51.95
2023-04-14T10:17:54.488Z,51.42
2023-04-14T10:20:21.988Z,51.53
2023-04-14T10:22:49.751Z,51.94
2023-04-14T10:25:18.157Z,50.70
2023-04-14T10:27:45.472Z,50.59
2023-04-14T10:30:12.498Z,49.66
2023-04-14T10:32:40.646Z,49.73
2023-04-14T10:35:10.158Z,49.46
2023-04-14T10:37:37.258Z,49.09
2023-04-14T10:40:06.902Z,49.05
2023-04-14T10:42:54.268Z,48.05
2023-04-14T10:45:22.043Z,49.03
2023-04-14T10:47:50.097Z,48.61
2023-04-14T10:50:18.275Z,50.11
2023-04-14T10:52:56.138Z,48.18
2023-04-14T10:55:26.883Z,48.33
2023-04-14T10:58:04.124Z,48.51
2023-04-14T11:00:32.358Z,47.53
2023-04-14T11:03:06.417Z,47.83
2023-04-14T11:05:34.371Z,48.06
2023-04-14T11:08:11.930Z,47.53
2023-04-14T11:10:38.799Z,47.64
2023-04-14T11:13:08.542Z,48.29
2023-04-14T11:15:49.231Z,47.77
2023-04-14T11:18:20.609Z,49.39
2023-04-14T11:20:47.768Z,49.41
2023-04-14T11:23:15.280Z,49.86
2023-04-14T11:25:42.684Z,48.66
2023-04-14T11:28:09.387Z,47.56
2023-04-14T11:30:36.000Z,47.57
2023-04-14T11:33:02.881Z,48.02
2023-04-14T11:35:31.226Z,46.96
2023-04-14T11:38:00.372Z,48.11
2023-04-14T11:40:28.002Z,47.41
2023-04-14T11:42:58.882Z,45.21
2023-04-14T11:45:29.749Z,45.46
2023-04-14T11:48:04.363Z,44.27
2023-04-14T11:50:33.263Z,44.03
2023-04-14T11:53:00.677Z,43.75
2023-04-14T11:55:28.068Z,43.43
2023-04-14T11:57:58.052Z,43.29
2023-04-14T12:00:25.215Z,42.87
2023-04-14T12:02:52.495Z,41.84
2023-04-14T12:05:30.298Z,39.72
2023-04-14T12:08:02.122Z,39.50
2023-04-14T12:10:29.191Z,39.10
2023-04-14T12:13:04.277Z,37.78
2023-04-14T12:15:38.639Z,38.37
2023-04-14T12:18:08.447Z,39.27
2023-04-14T12:20:44.944Z,40.65
2023-04-14T12:23:11.920Z,41.16
2023-04-14T12:25:39.442Z,38.25
2023-04-14T12:28:06.436Z,37.05
2023-04-14T12:30:34.301Z,35.76
2023-04-14T12:33:09.531Z,35.35
2023-04-14T12:35:36.244Z,35.00
2023-04-14T12:38:09.741Z,34.35
2023-04-14T12:40:38.116Z,33.98
2023-04-14T12:43:05.188Z,36.85
2023-04-14T12:45:41.511Z,35.82
2023-04-14T12:48:08.354Z,33.77
2023-04-14T12:50:35.235Z,34.38
2023-04-14T12:53:02.802Z,36.12
2023-04-14T12:55:31.123Z,35.00
2023-04-14T12:57:58.871Z,34.65
2023-04-14T13:00:27.633Z,34.97
2023-04-14T13:02:55.635Z,35.16
2023-04-14T13:05:22.925Z,34.09
2023-04-14T13:07:49.671Z,34.07
2023-04-14T13:10:16.398Z,33.46
2023-04-14T13:12:43.022Z,34.75
2023-04-14T13:15:22.448Z,33.25
2023-04-14T13:17:57.006Z,33.62
2023-04-14T13:20:23.685Z,33.78
2023-04-14T13:22:50.319Z,33.96
2023-04-14T13:25:16.929Z,35.34
2023-04-14T13:27:43.579Z,34.53
2023-04-14T13:30:10.850Z,33.49
2023-04-14T13:32:37.650Z,32.30
2023-04-14T13:35:04.693Z,32.63
2023-04-14T13:37:31.473Z,32.66
2023-04-14T13:39:58.081Z,32.77
2023-04-14T13:42:24.788Z,32.93
2023-04-14T13:44:51.482Z,33.66
2023-04-14T13:47:19.002Z,32.26
2023-04-14T13:49:45.664Z,33.11
2023-04-14T13:52:12.331Z,31.67
2023-04-14T13:54:39.047Z,31.06
2023-04-14T13:57:05.905Z,32.19
2023-04-14T13:59:33.028Z,34.43
2023-04-14T14:01:59.940Z,34.52
2023-04-14T14:04:27.345Z,34.72
2023-04-14T14:06:54.206Z,33.76
2023-04-14T14:09:21.061Z,33.88
2023-04-14T14:11:47.701Z,33.05
2023-04-14T14:14:14.904Z,34.05
2023-04-14T14:16:42.021Z,33.58
2023-04-14T14:19:10.940Z,32.55
2023-04-14T14:21:37.967Z,35.31
2023-04-14T14:24:05.134Z,31.86
2023-04-14T14:26:31.917Z,32.19
2023-04-14T14:28:58.587Z,32.22
2023-04-14T14:31:25.502Z,30.83
2023-04-14T14:33:52.192Z,30.36
2023-04-14T14:36:18.950Z,32.21
2023-04-14T14:38:45.785Z,31.07
2023-04-14T14:41:12.537Z,31.44
2023-04-14T14:43:39.228Z,29.99
2023-04-14T14:46:06.120Z,29.87
2023-04-14T14:48:32.873Z,30.43
2023-04-14T14:50:59.547Z,29.81
2023-04-14T14:53:26.070Z,29.11
2023-04-14T14:55:52.808Z,29.34
2023-04-14T14:58:19.389Z,28.97
2023-04-14T15:00:47.336Z,27.87
2023-04-14T15:03:14.385Z,26.88
2023-04-14T15:05:41.540Z,25.09
2023-04-14T15:08:08.578Z,19.09
2023-04-14T15:10:35.217Z,14.40
2023-04-14T15:13:01.972Z,13.33
2023-04-14T15:15:29.009Z,12.34
2023-04-14T15:17:56.179Z,11.31
2023-04-14T15:20:22.884Z,11.81
2023-04-14T15:22:49.623Z,15.08
2023-04-14T15:25:16.229Z,20.29
2023-04-14T15:27:42.932Z,22.22
2023-04-14T15:30:10.434Z,23.81
2023-04-14T15:32:37.141Z,25.32
2023-04-14T15:35:03.921Z,26.74
2023-04-14T15:37:30.723Z,27.66
2023-04-14T15:39:57.375Z,27.87
2023-04-14T15:42:24.000Z,28.11
2023-04-14T15:44:53.560Z,28.21
2023-04-14T15:47:20.300Z,28.21
2023-04-14T15:49:49.936Z,27.34
2023-04-14T15:52:33.625Z,28.50
2023-04-14T15:55:00.337Z,29.48
2023-04-14T15:57:26.956Z,28.69
2023-04-14T15:59:53.547Z,28.60
2023-04-14T16:02:20.230Z,28.48
2023-04-14T16:04:47.094Z,28.49
2023-04-14T16:07:13.928Z,28.82
2023-04-14T16:09:40.592Z,28.99
2023-04-14T16:12:07.512Z,29.69
2023-04-14T16:14:35.299Z,29.70
2023-04-14T16:17:02.224Z,30.16
2023-04-14T16:19:28.871Z,29.45
2023-04-14T16:21:57.047Z,29.31
2023-04-14T16:24:23.770Z,28.81
2023-04-14T16:26:50.340Z,29.29
2023-04-14T16:29:16.956Z,29.64
2023-04-14T16:31:43.860Z,29.28
2023-04-14T16:34:10.519Z,29.72
2023-04-14T16:36:38.644Z,30.10
2023-04-14T16:39:06.115Z,29.96
2023-04-14T16:41:33.434Z,30.25
2023-04-14T16:44:00.706Z,29.68
2023-04-14T16:46:27.601Z,29.63
2023-04-14T16:48:54.215Z,30.31
2023-04-14T16:51:21.000Z,30.06
2023-04-14T16:53:48.588Z,30.31
2023-04-14T16:56:15.716Z,30.57
2023-04-14T16:58:42.455Z,30.31
2023-04-14T17:01:09.514Z,30.59
2023-04-14T17:03:37.023Z,30.26
2023-04-14T17:06:04.039Z,30.36
2023-04-14T17:08:30.782Z,30.21
2023-04-14T17:10:58.054Z,30.95
2023-04-14T17:13:24.831Z,30.67
2023-04-14T17:15:58.961Z,31.08
2023-04-14T17:18:33.392Z,30.45
2023-04-14T17:21:00.169Z,30.91
2023-04-14T17:23:27.324Z,31.43
2023-04-14T17:25:55.852Z,30.90
2023-04-14T17:28:22.775Z,31.85
2023-04-14T17:30:50.094Z,32.16
2023-04-14T17:33:17.336Z,31.77
2023-04-14T17:35:44.143Z,31.74
2023-04-14T17:38:10.803Z,31.91
2023-04-14T17:40:37.576Z,32.33
2023-04-14T17:43:07.258Z,32.93
2023-04-14T17:45:35.035Z,32.63
2023-04-14T17:48:01.735Z,33.12
2023-04-14T17:50:29.284Z,33.54
2023-04-14T17:52:57.395Z,33.25
2023-04-14T17:55:24.194Z,33.40
2023-04-14T17:57:51.492Z,33.75
2023-04-14T18:00:18.859Z,33.87
2023-04-14T18:02:45.695Z,33.92
2023-04-14T18:05:13.155Z,34.62
2023-04-14T18:07:41.804Z,34.22
2023-04-14T18:10:08.772Z,33.98
2023-04-14T18:12:36.554Z,34.25
2023-04-14T18:15:07.087Z,34.64
2023-04-14T18:17:36.587Z,34.78
2023-04-14T18:20:04.160Z,35.26
2023-04-14T18:22:31.539Z,34.37
2023-04-14T18:24:58.277Z,34.54
2023-04-14T18:29:54.576Z,35.02
2023-04-14T18:32:22.241Z,34.97
2023-04-14T18:34:48.848Z,35.76
2023-04-14T18:37:15.833Z,36.37
2023-04-14T18:39:42.844Z,37.08
2023-04-14T18:42:10.173Z,38.50
2023-04-14T18:44:36.862Z,38.30
2023-04-14T18:47:03.505Z,37.86
2023-04-14T18:49:30.165Z,37.69
2023-04-14T18:51:56.801Z,37.88
2023-04-14T18:54:23.830Z,37.89
2023-04-14T18:56:50.796Z,37.85
2023-04-14T18:59:18.531Z,37.72
2023-04-14T19:01:45.289Z,37.83
2023-04-14T19:04:12.138Z,37.48
2023-04-14T19:06:40.341Z,37.52
2023-04-14T19:09:07.599Z,38.02
2023-04-14T19:11:36.073Z,37.93
2023-04-14T19:14:06.073Z,38.45
2023-04-14T19:16:33.664Z,38.49
2023-04-14T19:19:00.873Z,38.92
2023-04-14T19:21:28.084Z,38.82
2023-04-14T19:23:56.977Z,38.80
2023-04-14T19:26:24.267Z,38.85
2023-04-14T19:28:52.806Z,38.97
2023-04-14T19:31:21.474Z,39.22
2023-04-14T19:33:49.155Z,39.00
2023-04-14T19:36:17.839Z,39.21
2023-04-14T19:38:44.765Z,39.43
2023-04-14T19:41:12.049Z,39.43
2023-04-14T19:43:38.968Z,40.98
2023-04-14T19:46:10.326Z,44.54
2023-04-14T19:48:37.104Z,43.86
2023-04-14T19:51:04.004Z,44.42
2023-04-14T19:53:30.958Z,43.86
2023-04-14T19:55:59.412Z,43.02
2023-04-14T19:58:28.375Z,42.74
2023-04-14T20:00:59.052Z,42.68
2023-04-14T20:03:26.972Z,42.19
2023-04-14T20:05:57.576Z,41.89
2023-04-14T20:08:27.798Z,41.90
2023-04-14T20:10:54.995Z,42.17
2023-04-14T20:13:24.322Z,42.10
2023-04-14T20:15:53.792Z,42.13
2023-04-14T20:18:20.902Z,43.54
2023-04-14T20:20:48.575Z,43.80
2023-04-14T20:23:15.928Z,44.08
2023-04-14T20:25:44.033Z,44.62
2023-04-14T20:28:10.905Z,44.45
2023-04-14T20:30:37.995Z,43.57
2023-04-14T20:33:05.887Z,43.06
2023-04-14T20:35:37.283Z,43.30
2023-04-14T20:38:05.722Z,44.17
2023-04-14T20:40:33.272Z,44.47
2023-04-14T20:43:02.657Z,44.66
2023-04-14T20:45:29.883Z,44.93
2023-04-14T20:47:57.232Z,45.11
2023-04-14T20:50:24.223Z,44.90
2023-04-14T20:52:51.234Z,45.37
2023-04-14T20:55:19.347Z,47.02
2023-04-14T20:57:47.857Z,47.33
2023-04-14T21:00:16.538Z,46.71
2023-04-14T21:02:44.495Z,45.66
2023-04-14T21:05:12.018Z,45.61
2023-04-14T21:07:43.672Z,45.48
2023-04-14T21:10:11.738Z,45.20
2023-04-14T21:15:00.454Z,44.85
2023-04-14T21:15:50.666Z,45.77
2023-04-14T21:18:13.941Z,45.75
2023-04-14T21:20:41.384Z,47.23
2023-04-14T21:23:08.152Z,50.62
2023-04-14T21:25:35.482Z,51.31
2023-04-14T21:28:02.425Z,50.10
2023-04-14T21:30:29.512Z,49.81
2023-04-14T21:32:56.532Z,48.84
2023-04-14T21:35:23.378Z,48.45
2023-04-14T21:37:50.027Z,48.87
2023-04-14T21:40:20.261Z,48.62
2023-04-14T21:42:47.433Z,48.56
2023-04-14T21:45:14.632Z,48.81
2023-04-14T21:47:41.550Z,49.55
2023-04-14T21:50:09.611Z,50.92
2023-04-14T21:52:37.130Z,51.55
2023-04-14T21:55:04.255Z,51.72
2023-04-14T21:57:44.363Z,51.18
2023-04-14T22:00:17.757Z,51.30
2023-04-14T22:02:45.459Z,51.28
2023-04-14T22:05:15.142Z,51.14
2023-04-14T22:07:41.974Z,51.24
2023-04-14T22:10:08.973Z,51.25
2023-04-14T22:12:36.166Z,51.23
2023-04-14T22:15:08.897Z,52.10
2023-04-14T22:17:37.470Z,53.17
2023-04-14T22:20:09.821Z,53.78
2023-04-14T22:22:36.834Z,54.97
2023-04-14T22:25:04.654Z,53.91
2023-04-14T22:27:33.595Z,53.64
2023-04-14T22:30:01.401Z,53.43
2023-04-14T22:32:30.516Z,52.67
2023-04-14T22:34:57.533Z,52.70
2023-04-14T22:37:24.334Z,52.56
2023-04-14T22:39:51.503Z,52.93
2023-04-14T22:42:18.106Z,52.91
2023-04-14T22:44:44.970Z,53.87
2023-04-14T22:47:11.890Z,55.64
2023-04-14T22:49:38.709Z,55.45
2023-04-14T22:52:05.527Z,55.99
2023-04-14T22:54:32.681Z,56.39
2023-04-14T22:56:59.648Z,56.97
2023-04-14T22:59:26.886Z,56.39
2023-04-14T23:01:53.797Z,55.53
2023-04-14T23:04:20.650Z,55.03
2023-04-14T23:06:47.339Z,56.19
2023-04-14T23:09:14.075Z,56.81
2023-04-14T23:11:40.820Z,57.22
2023-04-14T23:14:08.354Z,56.13
2023-04-14T23:16:35.115Z,55.32
2023-04-14T23:19:02.984Z,55.87
2023-04-14T23:21:30.186Z,55.74
2023-04-14T23:23:56.858Z,56.58
2023-04-14T23:26:23.565Z,56.35
2023-04-14T23:28:50.437Z,59.01
2023-04-14T23:31:17.913Z,59.35
2023-04-14T23:33:45.498Z,58.84
2023-04-14T23:36:13.463Z,58.68
2023-04-14T23:38:40.205Z,58.89
2023-04-14T23:41:07.156Z,60.29
2023-04-14T23:43:34.658Z,61.07
2023-04-14T23:46:01.845Z,60.64
2023-04-14T23:48:28.672Z,59.92
2023-04-14T23:51:00.567Z,61.40
2023-04-14T23:53:41.054Z,60.83
2023-04-14T23:56:07.982Z,59.79
2023-04-14T23:58:34.737Z,61.31
